Time;durP1;ratioP1;P1;durP2;ratioP2;P2;SDS_P1;SDS_P2;PMS_P1;PMS_P2;Temp;Humidity;BMP_temperature;BMP_pressure;BME280_temperature;BME280_humidity;BME280_pressure;Samples;Min_cycle;Max_cycle;Signal;HPM_P1;HPM_P2
2021/07/19 00:01:35;;;;;;;7.30;3.85;;;;;;;;;;4959617;28;20681;-74
2021/07/19 00:04:01;;;;;;;7.78;3.83;;;;;;;;;;4969292;28;20672;-74
2021/07/19 00:06:26;;;;;;;5.22;3.45;;;;;;;;;;4951778;28;20218;-74
2021/07/19 00:08:51;;;;;;;4.13;3.55;;;;;;;;;;4972205;28;20219;-74
2021/07/19 00:11:16;;;;;;;6.65;4.28;;;;;;;;;;4964891;28;20656;-76
2021/07/19 00:13:42;;;;;;;5.50;3.47;;;;;;;;;;4971367;28;20222;-75
2021/07/19 00:16:07;;;;;;;6.13;3.80;;;;;;;;;;4969959;28;20438;-75
2021/07/19 00:18:32;;;;;;;5.57;3.70;;;;;;;;;;4971937;28;20577;-75
2021/07/19 00:20:58;;;;;;;6.45;3.60;;;;;;;;;;4971897;28;20247;-74
2021/07/19 00:23:23;;;;;;;5.50;3.67;;;;;;;;;;4951425;28;20182;-75
2021/07/19 00:25:49;;;;;;;6.43;3.45;;;;;;;;;;4953297;28;20216;-75
2021/07/19 00:28:14;;;;;;;6.80;4.25;;;;;;;;;;4965391;28;20431;-74
2021/07/19 00:30:39;;;;;;;4.70;3.58;;;;;;;;;;4969923;28;20561;-73
2021/07/19 00:33:05;;;;;;;4.13;3.42;;;;;;;;;;4966878;28;20203;-75
2021/07/19 00:35:30;;;;;;;8.15;4.05;;;;;;;;;;4966518;28;20180;-74
2021/07/19 00:37:55;;;;;;;5.50;4.68;;;;;;;;;;4965635;28;20188;-73
2021/07/19 00:40:23;;;;;;;5.88;3.80;;;;;;;;;;4962756;28;20208;-74
2021/07/19 00:42:48;;;;;;;6.47;3.97;;;;;;;;;;4954782;28;20196;-73
2021/07/19 00:45:15;;;;;;;5.75;3.92;;;;;;;;;;4967273;28;20179;-74
2021/07/19 00:47:41;;;;;;;7.80;3.97;;;;;;;;;;4959533;28;20271;-74
2021/07/19 00:50:07;;;;;;;4.60;4.10;;;;;;;;;;4970897;28;20282;-74
2021/07/19 00:52:32;;;;;;;8.90;4.00;;;;;;;;;;4967005;28;20197;-74
2021/07/19 00:54:58;;;;;;;7.38;5.28;;;;;;;;;;4962102;28;20188;-74
2021/07/19 00:57:23;;;;;;;7.25;4.90;;;;;;;;;;4953515;28;20250;-74
2021/07/19 00:59:49;;;;;;;9.73;4.10;;;;;;;;;;4959078;28;20180;-74
2021/07/19 01:02:15;;;;;;;5.20;4.38;;;;;;;;;;4943470;28;20184;-75
2021/07/19 01:04:41;;;;;;;6.25;3.78;;;;;;;;;;4945492;28;20185;-74
2021/07/19 01:07:07;;;;;;;5.63;4.47;;;;;;;;;;4949521;28;20758;-73
2021/07/19 01:09:32;;;;;;;8.15;4.35;;;;;;;;;;4948307;28;20267;-75
2021/07/19 01:12:01;;;;;;;8.02;4.88;;;;;;;;;;4950770;28;20197;-74
2021/07/19 01:14:26;;;;;;;9.82;4.32;;;;;;;;;;4940024;28;20216;-73
2021/07/19 01:16:51;;;;;;;6.82;4.22;;;;;;;;;;4946746;28;20258;-74
2021/07/19 01:19:17;;;;;;;8.30;4.38;;;;;;;;;;4946701;28;20229;-74
2021/07/19 01:21:51;;;;;;;5.75;3.92;;;;;;;;;;4951206;28;20209;-75
2021/07/19 01:24:24;;;;;;;6.72;4.10;;;;;;;;;;4959975;28;20188;-75
2021/07/19 01:26:52;;;;;;;6.53;4.07;;;;;;;;;;4946323;28;20191;-73
2021/07/19 01:29:19;;;;;;;7.18;4.95;;;;;;;;;;4948699;28;20272;-75
2021/07/19 01:31:45;;;;;;;8.82;4.72;;;;;;;;;;4948581;28;20201;-74
2021/07/19 01:34:18;;;;;;;7.70;5.25;;;;;;;;;;4947304;28;20218;-74
2021/07/19 01:36:45;;;;;;;7.88;4.80;;;;;;;;;;4933167;28;20192;-73
2021/07/19 01:39:11;;;;;;;8.27;4.55;;;;;;;;;;4935673;28;20176;-74
2021/07/19 01:41:37;;;;;;;5.90;4.22;;;;;;;;;;4934176;28;20219;-73
2021/07/19 01:44:03;;;;;;;6.28;4.55;;;;;;;;;;4951222;28;20677;-74
2021/07/19 01:46:28;;;;;;;7.97;5.00;;;;;;;;;;4947108;28;20673;-74
2021/07/19 01:48:55;;;;;;;5.53;3.95;;;;;;;;;;4935938;28;20188;-74
2021/07/19 01:51:20;;;;;;;6.65;4.93;;;;;;;;;;4946365;28;20231;-74
2021/07/19 01:53:47;;;;;;;7.03;5.10;;;;;;;;;;4958129;28;20682;-72
2021/07/19 01:56:12;;;;;;;6.18;4.45;;;;;;;;;;4954286;28;20175;-76
2021/07/19 01:58:37;;;;;;;7.35;5.07;;;;;;;;;;4950724;28;20676;-76
2021/07/19 02:01:04;;;;;;;7.35;4.93;;;;;;;;;;4949570;28;20283;-76
2021/07/19 02:03:29;;;;;;;6.90;4.28;;;;;;;;;;4952084;28;20817;-76
2021/07/19 02:05:56;;;;;;;7.10;4.88;;;;;;;;;;4956721;28;20406;-74
2021/07/19 02:08:21;;;;;;;8.48;5.30;;;;;;;;;;4955821;28;21036;-73
2021/07/19 02:10:51;;;;;;;6.47;4.72;;;;;;;;;;4948289;28;20224;-76
2021/07/19 02:13:17;;;;;;;8.48;5.55;;;;;;;;;;4951044;28;20259;-73
2021/07/19 02:15:42;;;;;;;5.80;4.63;;;;;;;;;;4948257;28;20244;-73
2021/07/19 02:18:08;;;;;;;8.93;5.00;;;;;;;;;;4951911;28;20447;-73
2021/07/19 02:20:34;;;;;;;7.03;4.88;;;;;;;;;;4949041;28;20216;-73
2021/07/19 02:23:01;;;;;;;8.20;5.35;;;;;;;;;;4953000;28;20424;-74
2021/07/19 02:25:26;;;;;;;8.60;4.55;;;;;;;;;;4950130;28;20188;-75
2021/07/19 02:27:52;;;;;;;7.93;5.03;;;;;;;;;;4953425;28;20207;-74
2021/07/19 02:30:19;;;;;;;7.80;5.05;;;;;;;;;;4950092;28;20204;-73
2021/07/19 02:32:45;;;;;;;8.48;6.03;;;;;;;;;;4937979;28;20201;-75
2021/07/19 02:35:12;;;;;;;5.63;4.45;;;;;;;;;;4950248;28;20264;-73
2021/07/19 02:37:37;;;;;;;10.60;5.80;;;;;;;;;;4954504;28;20451;-74
2021/07/19 02:40:04;;;;;;;7.05;4.65;;;;;;;;;;4949389;28;20293;-74
2021/07/19 02:42:29;;;;;;;7.72;5.50;;;;;;;;;;4954097;28;20243;-74
2021/07/19 02:44:55;;;;;;;9.10;5.05;;;;;;;;;;4950666;28;20176;-74
2021/07/19 02:47:20;;;;;;;9.10;5.82;;;;;;;;;;4952924;28;20727;-72
2021/07/19 02:49:46;;;;;;;8.93;5.10;;;;;;;;;;4949265;28;20764;-73
2021/07/19 02:52:11;;;;;;;10.53;6.13;;;;;;;;;;4934561;28;20637;-74
2021/07/19 02:54:37;;;;;;;7.03;5.28;;;;;;;;;;4954234;28;20345;-74
2021/07/19 02:57:02;;;;;;;8.52;5.28;;;;;;;;;;4931898;28;20180;-74
2021/07/19 02:59:28;;;;;;;6.10;5.03;;;;;;;;;;4950088;28;20251;-74
2021/07/19 03:01:55;;;;;;;11.27;6.60;;;;;;;;;;4948890;28;20208;-73
2021/07/19 03:04:21;;;;;;;7.20;4.53;;;;;;;;;;4948800;28;20672;-74
2021/07/19 03:06:48;;;;;;;7.22;5.45;;;;;;;;;;4951332;28;20223;-74
2021/07/19 03:09:13;;;;;;;7.10;4.85;;;;;;;;;;4945217;28;20181;-74
2021/07/19 03:11:40;;;;;;;5.40;4.55;;;;;;;;;;4962905;28;20296;-73
2021/07/19 03:14:13;;;;;;;7.05;5.30;;;;;;;;;;4948422;28;20871;-74
2021/07/19 03:16:40;;;;;;;8.35;5.72;;;;;;;;;;4948572;28;20188;-73
2021/07/19 03:19:08;;;;;;;7.88;5.15;;;;;;;;;;4951959;28;20180;-73
2021/07/19 03:21:35;;;;;;;7.32;4.82;;;;;;;;;;4950944;28;20216;-73
2021/07/19 03:24:01;;;;;;;6.35;5.03;;;;;;;;;;4949896;28;20204;-75
2021/07/19 03:26:26;;;;;;;10.98;5.63;;;;;;;;;;4935365;28;20463;-75
2021/07/19 03:28:52;;;;;;;7.57;5.40;;;;;;;;;;4948549;28;20543;-75
2021/07/19 03:31:19;;;;;;;7.93;5.40;;;;;;;;;;4948246;28;20315;-75
2021/07/19 03:33:45;;;;;;;9.05;5.72;;;;;;;;;;4950260;28;20677;-75
2021/07/19 03:36:11;;;;;;;10.73;5.55;;;;;;;;;;4952803;28;20264;-75
2021/07/19 03:38:37;;;;;;;9.65;6.47;;;;;;;;;;4952743;28;20192;-75
2021/07/19 03:41:03;;;;;;;7.85;5.82;;;;;;;;;;4955337;28;20200;-75
2021/07/19 03:43:34;;;;;;;8.90;6.50;;;;;;;;;;4950705;28;20185;-74
2021/07/19 03:46:00;;;;;;;9.50;6.18;;;;;;;;;;4949643;28;20216;-75
2021/07/19 03:48:26;;;;;;;9.43;5.60;;;;;;;;;;4950031;28;20192;-75
2021/07/19 03:50:51;;;;;;;10.18;6.22;;;;;;;;;;4949911;28;20208;-75
2021/07/19 03:53:17;;;;;;;7.30;5.40;;;;;;;;;;4945399;28;20757;-75
2021/07/19 03:55:47;;;;;;;11.00;6.05;;;;;;;;;;4945593;28;20188;-75
2021/07/19 03:58:12;;;;;;;6.80;4.97;;;;;;;;;;4963827;28;20176;-75
2021/07/19 04:00:38;;;;;;;9.27;6.28;;;;;;;;;;4955153;28;20294;-74
2021/07/19 04:03:16;;;;;;;11.02;5.85;;;;;;;;;;4947928;28;20192;-74
2021/07/19 04:05:42;;;;;;;7.47;5.55;;;;;;;;;;4953220;28;20617;-75
2021/07/19 04:08:09;;;;;;;7.63;5.47;;;;;;;;;;4954494;28;20183;-74
2021/07/19 04:10:34;;;;;;;9.57;6.15;;;;;;;;;;4935120;28;20200;-75
2021/07/19 04:13:00;;;;;;;9.55;6.22;;;;;;;;;;4949273;28;20215;-73
2021/07/19 04:15:26;;;;;;;7.18;5.60;;;;;;;;;;4939697;28;20189;-75
2021/07/19 04:17:52;;;;;;;9.25;5.78;;;;;;;;;;4949045;28;20245;-74
2021/07/19 04:20:17;;;;;;;7.25;5.60;;;;;;;;;;4932798;28;20239;-75
2021/07/19 04:22:43;;;;;;;7.05;6.13;;;;;;;;;;4954549;28;20264;-74
2021/07/19 04:25:10;;;;;;;9.73;6.20;;;;;;;;;;4947879;28;22248;-74
2021/07/19 04:27:36;;;;;;;10.07;5.68;;;;;;;;;;4952762;28;20185;-75
2021/07/19 04:30:03;;;;;;;9.05;6.00;;;;;;;;;;4949429;28;20195;-75
2021/07/19 04:32:28;;;;;;;9.25;5.82;;;;;;;;;;4936253;28;20192;-75
2021/07/19 04:34:53;;;;;;;8.02;6.50;;;;;;;;;;4950622;28;20329;-74
2021/07/19 04:37:18;;;;;;;9.48;5.80;;;;;;;;;;4936997;28;20188;-75
2021/07/19 04:39:44;;;;;;;10.75;5.72;;;;;;;;;;4934981;28;20209;-75
2021/07/19 04:42:09;;;;;;;7.43;5.95;;;;;;;;;;4954560;28;21012;-76
2021/07/19 04:44:35;;;;;;;11.13;6.32;;;;;;;;;;4936241;28;20610;-75
2021/07/19 04:47:00;;;;;;;12.43;6.15;;;;;;;;;;4950408;28;20181;-74
2021/07/19 04:49:27;;;;;;;11.73;6.05;;;;;;;;;;4950301;28;20193;-75
2021/07/19 04:51:52;;;;;;;10.95;6.30;;;;;;;;;;4949464;28;20264;-75
2021/07/19 04:54:22;;;;;;;8.77;5.85;;;;;;;;;;4947677;28;20211;-75
2021/07/19 04:56:48;;;;;;;9.45;5.65;;;;;;;;;;4948508;28;20180;-75
2021/07/19 04:59:15;;;;;;;9.90;6.22;;;;;;;;;;4949490;28;20176;-75
2021/07/19 05:01:40;;;;;;;13.00;6.45;;;;;;;;;;4932232;28;20201;-76
2021/07/19 05:04:06;;;;;;;8.25;5.72;;;;;;;;;;4947777;28;20301;-76
2021/07/19 05:06:32;;;;;;;14.85;6.30;;;;;;;;;;4955318;28;20315;-76
2021/07/19 05:08:58;;;;;;;6.80;5.43;;;;;;;;;;4946556;28;20191;-75
2021/07/19 05:11:24;;;;;;;6.13;4.97;;;;;;;;;;4955097;28;20205;-75
2021/07/19 05:13:50;;;;;;;9.20;5.55;;;;;;;;;;4947134;28;20276;-75
2021/07/19 05:16:15;;;;;;;7.85;5.45;;;;;;;;;;4948380;28;20650;-75
2021/07/19 05:18:41;;;;;;;9.40;6.45;;;;;;;;;;4948363;28;20602;-75
2021/07/19 05:21:07;;;;;;;8.90;6.15;;;;;;;;;;4950607;28;20747;-74
2021/07/19 05:23:32;;;;;;;8.18;5.97;;;;;;;;;;4947602;28;20242;-75
2021/07/19 05:25:57;;;;;;;7.40;6.03;;;;;;;;;;4949901;28;20206;-75
2021/07/19 05:28:22;;;;;;;9.40;5.83;;;;;;;;;;4959123;28;20267;-74
2021/07/19 05:30:49;;;;;;;8.75;6.15;;;;;;;;;;4957398;28;20461;-75
2021/07/19 05:33:14;;;;;;;9.95;6.97;;;;;;;;;;4953572;28;20284;-76
2021/07/19 05:35:40;;;;;;;9.15;6.85;;;;;;;;;;4933582;28;20303;-74
2021/07/19 05:38:05;;;;;;;8.55;6.70;;;;;;;;;;4956936;28;20195;-75
2021/07/19 05:40:33;;;;;;;9.13;5.90;;;;;;;;;;4938079;28;20266;-74
2021/07/19 05:42:59;;;;;;;8.80;6.18;;;;;;;;;;4955831;28;20180;-76
2021/07/19 05:45:24;;;;;;;8.98;5.55;;;;;;;;;;4949314;28;20932;-75
2021/07/19 05:47:50;;;;;;;9.05;5.20;;;;;;;;;;4951090;28;20906;-74
2021/07/19 05:50:15;;;;;;;8.57;5.20;;;;;;;;;;4949853;28;20786;-73
2021/07/19 05:52:40;;;;;;;8.63;5.15;;;;;;;;;;4953662;28;20465;-75
2021/07/19 05:55:06;;;;;;;7.63;4.85;;;;;;;;;;4948658;28;20185;-75
2021/07/19 05:57:32;;;;;;;8.38;5.20;;;;;;;;;;4938788;28;20264;-75
2021/07/19 05:59:57;;;;;;;5.85;3.90;;;;;;;;;;4952284;28;20275;-75
2021/07/19 06:02:26;;;;;;;7.93;4.30;;;;;;;;;;4942397;28;20189;-76
2021/07/19 06:04:51;;;;;;;5.85;4.80;;;;;;;;;;4938325;28;20177;-74
2021/07/19 06:07:16;;;;;;;5.57;4.43;;;;;;;;;;4954758;28;20192;-75
2021/07/19 06:09:42;;;;;;;7.10;4.63;;;;;;;;;;4950200;28;20243;-76
2021/07/19 06:12:07;;;;;;;5.28;3.88;;;;;;;;;;4963217;28;20458;-74
2021/07/19 06:14:32;;;;;;;6.90;3.30;;;;;;;;;;4952549;28;20685;-74
2021/07/19 06:16:58;;;;;;;5.20;3.65;;;;;;;;;;4956135;28;20180;-74
2021/07/19 06:19:23;;;;;;;5.70;3.92;;;;;;;;;;4951103;28;20199;-74
2021/07/19 06:21:48;;;;;;;5.40;4.38;;;;;;;;;;4950993;28;21339;-75
2021/07/19 06:24:13;;;;;;;4.97;4.00;;;;;;;;;;4951437;28;20180;-75
2021/07/19 06:26:39;;;;;;;5.70;3.50;;;;;;;;;;4952852;28;20436;-75
2021/07/19 06:29:04;;;;;;;6.63;4.05;;;;;;;;;;4937341;28;20184;-75
2021/07/19 06:31:29;;;;;;;5.80;4.30;;;;;;;;;;4946178;28;20210;-75
2021/07/19 06:33:55;;;;;;;5.60;4.13;;;;;;;;;;4936505;28;22054;-74
2021/07/19 06:36:20;;;;;;;5.82;3.90;;;;;;;;;;4953432;28;20762;-75
2021/07/19 06:38:45;;;;;;;5.55;4.20;;;;;;;;;;4948379;28;20188;-74
2021/07/19 06:41:12;;;;;;;5.57;4.13;;;;;;;;;;4953942;28;20278;-76
2021/07/19 06:43:38;;;;;;;6.15;4.35;;;;;;;;;;4950168;28;20444;-76
2021/07/19 06:46:03;;;;;;;7.55;5.05;;;;;;;;;;4954013;28;20517;-76
2021/07/19 06:48:28;;;;;;;7.67;5.10;;;;;;;;;;4950517;28;20788;-75
2021/07/19 06:50:53;;;;;;;8.60;5.43;;;;;;;;;;4949875;28;20458;-77
2021/07/19 06:53:19;;;;;;;8.63;5.38;;;;;;;;;;4952290;28;20455;-76
2021/07/19 06:55:44;;;;;;;7.53;5.90;;;;;;;;;;4951823;28;20184;-76
2021/07/19 06:58:09;;;;;;;8.23;5.77;;;;;;;;;;4949665;28;20437;-76
2021/07/19 07:00:34;;;;;;;6.83;5.43;;;;;;;;;;4945792;28;21014;-76
2021/07/19 07:02:59;;;;;;;6.83;4.87;;;;;;;;;;4957991;28;20437;-76
2021/07/19 07:05:24;;;;;;;6.13;5.35;;;;;;;;;;4951249;28;20810;-77
2021/07/19 07:07:50;;;;;;;6.70;5.18;;;;;;;;;;4935402;28;20655;-76
2021/07/19 07:10:15;;;;;;;7.35;4.95;;;;;;;;;;4948654;28;20758;-76
2021/07/19 07:12:42;;;;;;;11.07;5.67;;;;;;;;;;4939130;28;20298;-75
2021/07/19 07:15:08;;;;;;;7.68;5.90;;;;;;;;;;4948230;28;20943;-75
2021/07/19 07:17:33;;;;;;;8.30;5.07;;;;;;;;;;4941204;28;20187;-77
2021/07/19 07:19:59;;;;;;;6.87;5.37;;;;;;;;;;4953100;28;21449;-76
2021/07/19 07:22:25;;;;;;;7.00;5.50;;;;;;;;;;4984390;23;20619;-71
2021/07/19 07:24:50;;;;;;;7.22;5.10;;;;;;;;;;4987222;28;20716;-71
2021/07/19 07:27:18;;;;;;;9.60;5.85;;;;;;;;;;4987661;28;20182;-71
2021/07/19 07:29:43;;;;;;;9.35;5.07;;;;;;;;;;4990145;28;20675;-71
2021/07/19 07:32:08;;;;;;;8.13;5.97;;;;;;;;;;4982630;28;20204;-72
2021/07/19 07:34:33;;;;;;;8.70;5.70;;;;;;;;;;4976098;28;20559;-72
2021/07/19 07:36:59;;;;;;;6.55;5.03;;;;;;;;;;4976638;28;21202;-72
2021/07/19 07:39:24;;;;;;;10.27;5.43;;;;;;;;;;4975050;28;20653;-72
2021/07/19 07:41:49;;;;;;;6.20;5.60;;;;;;;;;;4977088;28;20206;-72
2021/07/19 07:44:14;;;;;;;7.82;5.38;;;;;;;;;;4974176;28;20512;-72
2021/07/19 07:46:41;;;;;;;9.30;5.80;;;;;;;;;;4974302;28;20816;-71
2021/07/19 07:49:06;;;;;;;8.15;5.53;;;;;;;;;;4973336;28;21008;-72
2021/07/19 07:51:32;;;;;;;7.07;5.20;;;;;;;;;;4981264;28;20205;-72
2021/07/19 07:53:58;;;;;;;6.32;5.18;;;;;;;;;;4984956;28;20219;-71
2021/07/19 07:56:24;;;;;;;7.72;5.22;;;;;;;;;;4979556;28;20180;-73
2021/07/19 07:58:49;;;;;;;7.63;4.80;;;;;;;;;;4983214;28;20888;-72
2021/07/19 08:01:14;;;;;;;7.20;5.40;;;;;;;;;;4978125;28;20700;-72
2021/07/19 08:03:40;;;;;;;7.88;5.05;;;;;;;;;;4974135;28;20432;-71
2021/07/19 08:06:05;;;;;;;6.15;4.75;;;;;;;;;;4974336;28;20206;-71
2021/07/19 08:08:30;;;;;;;5.85;4.30;;;;;;;;;;4972919;28;20222;-71
2021/07/19 08:10:55;;;;;;;6.40;4.53;;;;;;;;;;4975865;28;20206;-72
2021/07/19 08:13:20;;;;;;;5.20;4.13;;;;;;;;;;4972265;28;20456;-72
2021/07/19 08:15:47;;;;;;;5.93;4.37;;;;;;;;;;4973719;28;20180;-72
2021/07/19 08:18:13;;;;;;;11.35;7.07;;;;;;;;;;4971909;28;20417;-71
2021/07/19 08:20:38;;;;;;;5.43;4.43;;;;;;;;;;4972890;28;20287;-70
2021/07/19 08:23:03;;;;;;;5.93;4.28;;;;;;;;;;4973979;28;20188;-71
2021/07/19 08:25:28;;;;;;;7.70;5.70;;;;;;;;;;4956848;28;20646;-70
2021/07/19 08:27:55;;;;;;;7.83;5.23;;;;;;;;;;4976015;28;20557;-72
2021/07/19 08:30:20;;;;;;;5.05;4.20;;;;;;;;;;4977861;28;20512;-72
2021/07/19 08:32:46;;;;;;;4.63;4.15;;;;;;;;;;4978230;28;21413;-72
2021/07/19 08:35:11;;;;;;;6.35;4.03;;;;;;;;;;4974275;28;20182;-72
2021/07/19 08:37:38;;;;;;;4.88;4.28;;;;;;;;;;4959954;28;20218;-72
2021/07/19 08:40:03;;;;;;;5.15;4.47;;;;;;;;;;4958354;28;20230;-72
2021/07/19 08:42:29;;;;;;;4.65;4.10;;;;;;;;;;4975120;28;20195;-72
2021/07/19 08:44:54;;;;;;;4.72;4.30;;;;;;;;;;4974393;28;20183;-70
2021/07/19 08:47:20;;;;;;;6.57;3.90;;;;;;;;;;4976234;28;20203;-71
2021/07/19 08:49:45;;;;;;;4.22;3.78;;;;;;;;;;4974161;28;20432;-71
2021/07/19 08:52:14;;;;;;;4.67;3.60;;;;;;;;;;4955358;28;20318;-71
2021/07/19 08:54:42;;;;;;;4.80;3.95;;;;;;;;;;4975740;28;20471;-72
2021/07/19 08:57:07;;;;;;;4.72;3.85;;;;;;;;;;4977674;28;20207;-71
2021/07/19 08:59:33;;;;;;;7.72;3.85;;;;;;;;;;4972897;28;20322;-71
2021/07/19 09:02:01;;;;;;;6.28;3.63;;;;;;;;;;4973808;28;20187;-72
2021/07/19 09:04:26;;;;;;;5.28;3.88;;;;;;;;;;4961076;28;20205;-71
2021/07/19 09:06:52;;;;;;;4.50;3.80;;;;;;;;;;4978500;28;20199;-72
2021/07/19 09:09:26;;;;;;;6.13;3.85;;;;;;;;;;4962046;28;20191;-72
2021/07/19 09:11:52;;;;;;;6.72;4.10;;;;;;;;;;4979411;28;20208;-72
2021/07/19 09:14:17;;;;;;;6.43;4.07;;;;;;;;;;4974644;28;20282;-71
2021/07/19 09:16:43;;;;;;;4.57;3.67;;;;;;;;;;4959499;28;20711;-73
2021/07/19 09:19:10;;;;;;;5.03;4.20;;;;;;;;;;4978297;28;20180;-71
2021/07/19 09:21:36;;;;;;;7.57;3.95;;;;;;;;;;4976841;28;20215;-71
2021/07/19 09:24:06;;;;;;;9.77;3.95;;;;;;;;;;4975346;28;20233;-71
2021/07/19 09:26:31;;;;;;;5.85;3.67;;;;;;;;;;4975196;28;20199;-71
2021/07/19 09:28:57;;;;;;;5.93;4.63;;;;;;;;;;4973490;28;20824;-71
2021/07/19 09:31:30;;;;;;;5.00;3.72;;;;;;;;;;4976177;28;20191;-71
2021/07/19 09:33:55;;;;;;;6.30;3.95;;;;;;;;;;4963353;28;20218;-71
2021/07/19 09:36:21;;;;;;;6.77;4.53;;;;;;;;;;4979914;28;20183;-71
2021/07/19 09:38:46;;;;;;;6.60;3.95;;;;;;;;;;4978741;28;20439;-71
2021/07/19 09:41:22;;;;;;;8.07;5.17;;;;;;;;;;4976896;28;20195;-71
2021/07/19 09:43:51;;;;;;;8.05;5.03;;;;;;;;;;4977158;28;20943;-70
2021/07/19 09:46:16;;;;;;;6.50;4.10;;;;;;;;;;4975986;28;20192;-71
2021/07/19 09:48:41;;;;;;;8.37;6.00;;;;;;;;;;4975971;28;20218;-71
2021/07/19 09:51:06;;;;;;;12.45;6.85;;;;;;;;;;4976080;28;20928;-71
2021/07/19 09:53:37;;;;;;;8.50;6.23;;;;;;;;;;4977497;28;20195;-71
2021/07/19 09:56:09;;;;;;;13.75;7.97;;;;;;;;;;4978604;28;20468;-71
2021/07/19 09:58:34;;;;;;;5.70;4.20;;;;;;;;;;4976467;28;20579;-71
2021/07/19 10:00:59;;;;;;;6.82;4.22;;;;;;;;;;4981194;28;20207;-71
2021/07/19 10:03:25;;;;;;;7.30;4.77;;;;;;;;;;4981810;28;20232;-70
2021/07/19 10:05:50;;;;;;;15.93;9.20;;;;;;;;;;4976040;28;20418;-71
2021/07/19 10:08:19;;;;;;;7.60;4.90;;;;;;;;;;4979222;28;20183;-72
2021/07/19 10:10:45;;;;;;;8.02;5.22;;;;;;;;;;4973277;28;20338;-71
2021/07/19 10:13:10;;;;;;;9.25;5.10;;;;;;;;;;4976858;28;20218;-72
2021/07/19 10:15:37;;;;;;;9.10;4.80;;;;;;;;;;4955566;28;20212;-71
2021/07/19 10:18:08;;;;;;;7.05;4.40;;;;;;;;;;4977350;28;20207;-72
2021/07/19 10:20:34;;;;;;;6.78;5.10;;;;;;;;;;4976281;28;20200;-72
2021/07/19 10:23:00;;;;;;;6.43;4.93;;;;;;;;;;4980346;28;20199;-72
2021/07/19 10:25:25;;;;;;;7.40;5.25;;;;;;;;;;4974548;28;20196;-72
2021/07/19 10:27:50;;;;;;;7.60;4.93;;;;;;;;;;4984690;28;20194;-72
2021/07/19 10:30:16;;;;;;;9.43;4.53;;;;;;;;;;4976257;28;20266;-72
2021/07/19 10:32:42;;;;;;;5.10;4.57;;;;;;;;;;4973718;28;20992;-72
2021/07/19 10:35:07;;;;;;;6.78;4.75;;;;;;;;;;4974279;28;20233;-72
2021/07/19 10:37:35;;;;;;;7.40;4.85;;;;;;;;;;4975756;28;20578;-72
2021/07/19 10:40:02;;;;;;;6.05;4.43;;;;;;;;;;4958701;28;20183;-72
2021/07/19 10:42:43;;;;;;;5.30;4.70;;;;;;;;;;4972999;28;20211;-71
2021/07/19 10:45:13;;;;;;;9.40;5.28;;;;;;;;;;4975672;28;20175;-72
2021/07/19 10:47:45;;;;;;;5.30;4.80;;;;;;;;;;4977540;28;20179;-72
2021/07/19 10:50:14;;;;;;;8.30;5.05;;;;;;;;;;4957611;28;20266;-72
2021/07/19 10:52:39;;;;;;;7.85;5.18;;;;;;;;;;4977196;28;20187;-72
2021/07/19 10:55:08;;;;;;;6.95;4.78;;;;;;;;;;4976014;28;20183;-71
2021/07/19 10:57:44;;;;;;;6.53;5.03;;;;;;;;;;4976704;28;20645;-72
2021/07/19 11:00:13;;;;;;;6.70;5.60;;;;;;;;;;4974892;28;20258;-72
2021/07/19 11:02:38;;;;;;;8.43;5.20;;;;;;;;;;4975358;28;20183;-72
2021/07/19 11:05:03;;;;;;;5.90;5.30;;;;;;;;;;4976894;28;20191;-69
2021/07/19 11:07:37;;;;;;;10.02;6.63;;;;;;;;;;4978670;28;20432;-72
2021/07/19 11:10:12;;;;;;;6.68;5.22;;;;;;;;;;4979820;28;20793;-71
2021/07/19 11:12:45;;;;;;;7.05;4.97;;;;;;;;;;4956000;28;20233;-71
2021/07/19 11:15:10;;;;;;;10.88;5.22;;;;;;;;;;4977365;28;20190;-70
2021/07/19 11:17:35;;;;;;;9.15;5.30;;;;;;;;;;4973211;28;20225;-70
2021/07/19 11:20:09;;;;;;;5.63;5.13;;;;;;;;;;4972414;28;20188;-71
2021/07/19 11:22:34;;;;;;;7.18;5.03;;;;;;;;;;4975768;28;20678;-70
2021/07/19 11:25:11;;;;;;;6.50;4.70;;;;;;;;;;4971563;28;20184;-70
2021/07/19 11:27:37;;;;;;;5.90;5.28;;;;;;;;;;4978870;28;20301;-71
2021/07/19 11:30:05;;;;;;;7.43;5.45;;;;;;;;;;4974960;28;20187;-71
2021/07/19 11:32:31;;;;;;;7.13;5.30;;;;;;;;;;4976551;28;20187;-71
2021/07/19 11:35:05;;;;;;;5.80;5.20;;;;;;;;;;4975018;28;20635;-70
2021/07/19 11:37:34;;;;;;;8.30;5.38;;;;;;;;;;4975333;28;20178;-71
2021/07/19 11:40:00;;;;;;;7.53;5.40;;;;;;;;;;4972335;28;20195;-70
2021/07/19 11:42:30;;;;;;;7.80;5.00;;;;;;;;;;4972824;28;20191;-71
2021/07/19 11:45:02;;;;;;;10.60;6.18;;;;;;;;;;4972380;28;20191;-70
2021/07/19 11:47:28;;;;;;;6.20;4.90;;;;;;;;;;4973440;28;20230;-70
2021/07/19 11:50:20;;;;;;;6.43;4.80;;;;;;;;;;4972567;28;20199;-70
2021/07/19 11:52:45;;;;;;;6.13;5.10;;;;;;;;;;4976690;28;20204;-71
2021/07/19 11:55:12;;;;;;;5.55;5.00;;;;;;;;;;4972073;28;20250;-71
2021/07/19 11:57:45;;;;;;;9.32;5.57;;;;;;;;;;4953487;28;20190;-70
2021/07/19 12:00:11;;;;;;;7.60;4.70;;;;;;;;;;4976332;28;20727;-70
2021/07/19 12:02:36;;;;;;;5.00;4.38;;;;;;;;;;4971077;28;20275;-71
2021/07/19 12:05:01;;;;;;;6.57;5.10;;;;;;;;;;4975027;28;20255;-71
2021/07/19 12:07:27;;;;;;;5.60;4.70;;;;;;;;;;4969198;28;20743;-69
2021/07/19 12:09:59;;;;;;;5.45;4.60;;;;;;;;;;4974009;28;20547;-70
2021/07/19 12:12:24;;;;;;;6.82;4.93;;;;;;;;;;4979571;28;20680;-71
2021/07/19 12:14:57;;;;;;;5.75;5.13;;;;;;;;;;4972855;28;20318;-71
2021/07/19 12:17:32;;;;;;;4.78;4.32;;;;;;;;;;4975735;28;20545;-70
2021/07/19 12:19:58;;;;;;;7.35;4.70;;;;;;;;;;4972187;28;20183;-70
2021/07/19 12:22:23;;;;;;;6.40;4.78;;;;;;;;;;4976301;28;20222;-70
2021/07/19 12:24:55;;;;;;;5.05;4.28;;;;;;;;;;4971975;28;20207;-69
2021/07/19 12:27:21;;;;;;;6.63;4.40;;;;;;;;;;4975252;28;20282;-70
2021/07/19 12:29:49;;;;;;;6.47;4.75;;;;;;;;;;4956604;28;20606;-69
2021/07/19 12:32:14;;;;;;;6.60;4.55;;;;;;;;;;4973615;28;20879;-70
2021/07/19 12:34:41;;;;;;;8.27;4.93;;;;;;;;;;4973337;28;20433;-71
2021/07/19 12:37:19;;;;;;;8.57;5.35;;;;;;;;;;4975900;28;20786;-71
2021/07/19 12:39:57;;;;;;;5.38;4.57;;;;;;;;;;4959153;28;20211;-70
2021/07/19 12:42:25;;;;;;;6.55;4.78;;;;;;;;;;4976935;28;20202;-71
2021/07/19 12:44:55;;;;;;;6.60;5.18;;;;;;;;;;4972755;28;20176;-71
2021/07/19 12:47:21;;;;;;;6.10;5.00;;;;;;;;;;4973863;28;20191;-71
2021/07/19 12:49:46;;;;;;;5.10;4.60;;;;;;;;;;4970293;28;20195;-71
2021/07/19 12:52:13;;;;;;;5.07;4.47;;;;;;;;;;4974009;28;20206;-71
2021/07/19 12:54:39;;;;;;;7.38;4.88;;;;;;;;;;4973410;28;20685;-71
2021/07/19 12:57:04;;;;;;;8.10;5.00;;;;;;;;;;4973473;28;20191;-70
2021/07/19 12:59:29;;;;;;;6.05;4.40;;;;;;;;;;4953457;28;20306;-71
2021/07/19 13:01:56;;;;;;;5.13;4.28;;;;;;;;;;4955048;28;20617;-71
2021/07/19 13:04:22;;;;;;;6.18;4.68;;;;;;;;;;4972489;28;20196;-70
2021/07/19 13:06:47;;;;;;;6.18;5.10;;;;;;;;;;4972083;28;20187;-71
2021/07/19 13:09:18;;;;;;;7.90;4.90;;;;;;;;;;4972936;28;20253;-70
2021/07/19 13:11:44;;;;;;;5.63;4.88;;;;;;;;;;4979725;28;20209;-70
2021/07/19 13:14:10;;;;;;;6.22;5.25;;;;;;;;;;4972484;28;20203;-70
2021/07/19 13:16:36;;;;;;;6.80;4.93;;;;;;;;;;4970367;28;20672;-70
2021/07/19 13:19:01;;;;;;;7.53;5.40;;;;;;;;;;4971230;28;20179;-70
2021/07/19 13:21:26;;;;;;;5.27;4.67;;;;;;;;;;4999394;23;20317;-72
2021/07/19 13:23:52;;;;;;;7.32;5.03;;;;;;;;;;4989302;28;20187;-75
2021/07/19 13:26:17;;;;;;;5.83;5.10;;;;;;;;;;4989086;28;20191;-73
2021/07/19 13:28:42;;;;;;;6.47;4.88;;;;;;;;;;4990481;28;20429;-73
2021/07/19 13:31:09;;;;;;;6.75;5.20;;;;;;;;;;4997236;28;20668;-75
2021/07/19 13:33:40;;;;;;;6.22;5.43;;;;;;;;;;4991883;28;20209;-72
2021/07/19 13:36:05;;;;;;;7.05;5.28;;;;;;;;;;4988767;28;20175;-75
2021/07/19 13:38:34;;;;;;;7.43;4.70;;;;;;;;;;4997045;28;20184;-76
2021/07/19 13:40:59;;;;;;;7.30;4.72;;;;;;;;;;4992041;28;20718;-72
2021/07/19 13:43:24;;;;;;;8.35;4.35;;;;;;;;;;4988700;28;20194;-71
2021/07/19 13:45:50;;;;;;;7.43;6.17;;;;;;;;;;4989932;28;20632;-72
2021/07/19 13:48:16;;;;;;;6.45;4.75;;;;;;;;;;4993192;28;20537;-73
2021/07/19 13:50:41;;;;;;;8.00;5.37;;;;;;;;;;4995148;28;20215;-75
2021/07/19 13:53:06;;;;;;;5.80;5.20;;;;;;;;;;4997440;28;20239;-74
2021/07/19 13:55:35;;;;;;;7.18;5.65;;;;;;;;;;4994125;28;20221;-74
2021/07/19 13:58:01;;;;;;;7.75;5.25;;;;;;;;;;4993030;28;20179;-74
2021/07/19 14:00:26;;;;;;;5.60;4.97;;;;;;;;;;4995329;28;20188;-74
2021/07/19 14:02:51;;;;;;;7.60;5.40;;;;;;;;;;4997439;28;20203;-75
2021/07/19 14:05:18;;;;;;;7.73;5.50;;;;;;;;;;4993941;28;20270;-74
2021/07/19 14:07:43;;;;;;;7.20;5.00;;;;;;;;;;4996487;28;20189;-74
2021/07/19 14:10:09;;;;;;;8.15;5.15;;;;;;;;;;4993609;28;20174;-74
2021/07/19 14:12:34;;;;;;;5.07;4.55;;;;;;;;;;4996282;28;20510;-75
2021/07/19 14:14:59;;;;;;;6.23;4.73;;;;;;;;;;4993525;28;20664;-74
2021/07/19 14:17:24;;;;;;;7.90;5.27;;;;;;;;;;4997764;28;20933;-74
2021/07/19 14:19:50;;;;;;;7.27;4.80;;;;;;;;;;4993064;28;20259;-74
2021/07/19 14:22:15;;;;;;;6.47;5.00;;;;;;;;;;4994659;28;20580;-75
2021/07/19 14:24:40;;;;;;;5.23;4.33;;;;;;;;;;4995142;28;20471;-73
2021/07/19 14:27:05;;;;;;;6.03;4.95;;;;;;;;;;5009860;28;20533;-75
2021/07/19 14:29:32;;;;;;;6.82;4.82;;;;;;;;;;4993674;28;20174;-76
2021/07/19 14:31:57;;;;;;;6.82;5.03;;;;;;;;;;4993820;28;20953;-75
2021/07/19 14:34:24;;;;;;;6.83;5.00;;;;;;;;;;4996778;28;20218;-75
2021/07/19 14:36:49;;;;;;;5.82;4.85;;;;;;;;;;4997083;28;20270;-76
2021/07/19 14:39:15;;;;;;;9.05;5.10;;;;;;;;;;4993753;28;20202;-74